Albion, Ohio
Current Conditions -  °F | °C
As of 12:52 PM on Sunday 23 Nov 2014 (Local Time) from KMFD Reporting Station
Broken Clouds Broken Clouds  
Wind Chill: 55°   Ceiling: 5000
Heat Index: 55°   Visibility: 10mi
Dew Point: 40°   Wind: 12mph
Humidity: 57%   Direction: 150°SSE
Pressure: 29.88"   Gusts: NA
Location:  40.9441°N, 82.1006°W
Report Text: KMFD 231752Z 15010KT 10SM FEW031 BKN050 13/04 A2988 RMK AO2 SLP118 T01280044 10128 20067 58038
Loading
Personal Weather Stations






























Interactive Weather Map New forecast layout! Learn more

10-Day Weather Forecast

Advertisements
Track Severe Weather on mobile